Time;durP1;ratioP1;P1;durP2;ratioP2;P2;SDS_P1;SDS_P2;PMS_P1;PMS_P2;Temp;Humidity;BMP_temperature;BMP_pressure;BME280_temperature;BME280_humidity;BME280_pressure;Samples;Min_cycle;Max_cycle;Signal;HPM_P1;HPM_P2
2021/12/11 00:01:04;;;;;;;31.65;18.35;;;1.80;99.90;;;;;;4964346;28;20120;-58
2021/12/11 00:03:36;;;;;;;33.30;20.77;;;1.80;99.90;;;;;;4964636;28;20098;-58
2021/12/11 00:06:24;;;;;;;36.97;17.40;;;1.90;99.90;;;;;;4976594;28;20028;-59
2021/12/11 00:08:53;;;;;;;36.08;18.58;;;1.90;99.90;;;;;;4971078;28;20035;-57
2021/12/11 00:11:25;;;;;;;32.25;17.73;;;1.90;99.90;;;;;;4969393;28;20085;-57
2021/12/11 00:13:57;;;;;;;32.55;18.15;;;1.90;99.90;;;;;;4962669;28;20058;-58
2021/12/11 00:16:27;;;;;;;30.27;18.08;;;2.00;99.90;;;;;;4964740;28;20039;-56
2021/12/11 00:19:06;;;;;;;37.42;18.75;;;2.00;99.90;;;;;;4964298;28;20066;-57
2021/12/11 00:21:31;;;;;;;38.90;20.20;;;2.10;99.90;;;;;;4964412;28;20030;-57
2021/12/11 00:24:03;;;;;;;35.28;19.48;;;2.10;99.90;;;;;;4963125;28;20089;-58
2021/12/11 00:26:37;;;;;;;37.25;18.58;;;2.10;99.90;;;;;;4967054;28;20054;-56
2021/12/11 00:29:06;;;;;;;32.17;19.70;;;2.20;99.90;;;;;;4966258;28;20062;-54
2021/12/11 00:31:35;;;;;;;32.20;17.65;;;2.20;99.90;;;;;;4965247;28;20031;-58
2021/12/11 00:34:03;;;;;;;38.90;19.35;;;2.20;99.90;;;;;;4965011;28;20038;-58
2021/12/11 00:36:34;;;;;;;31.55;17.80;;;2.20;99.90;;;;;;4966414;28;20031;-58
2021/12/11 00:39:13;;;;;;;29.15;17.33;;;2.20;99.90;;;;;;4963112;28;20028;-57
2021/12/11 00:41:40;;;;;;;25.40;15.65;;;2.20;99.90;;;;;;4968565;28;20068;-58
2021/12/11 00:44:07;;;;;;;29.75;15.63;;;2.20;99.90;;;;;;4967694;28;20054;-58
2021/12/11 00:46:33;;;;;;;33.67;16.95;;;2.20;99.90;;;;;;4971870;28;20030;-58
2021/12/11 00:49:21;;;;;;;28.10;17.08;;;2.20;99.90;;;;;;4968859;28;20046;-58
2021/12/11 00:51:51;;;;;;;31.80;15.93;;;2.20;99.90;;;;;;4970149;28;20111;-57
2021/12/11 00:54:17;;;;;;;28.65;16.25;;;2.20;99.90;;;;;;4964785;28;20322;-56
2021/12/11 00:56:45;;;;;;;29.73;17.02;;;2.20;99.90;;;;;;4961674;28;20497;-58
2021/12/11 00:59:14;;;;;;;27.02;16.35;;;2.10;99.90;;;;;;4970771;28;20046;-59
2021/12/11 01:01:57;;;;;;;28.77;15.15;;;2.10;99.90;;;;;;4965889;28;20103;-58
2021/12/11 01:04:37;;;;;;;28.92;16.30;;;2.20;99.90;;;;;;4966713;28;20049;-57
2021/12/11 01:07:18;;;;;;;36.80;16.25;;;2.20;99.90;;;;;;4965364;28;20074;-59
2021/12/11 01:09:52;;;;;;;28.35;16.02;;;2.20;99.90;;;;;;4972324;28;20026;-59
2021/12/11 01:12:40;;;;;;;29.00;15.73;;;2.20;99.90;;;;;;4952694;29;20039;-57
2021/12/11 01:15:32;;;;;;;30.83;16.48;;;2.20;99.90;;;;;;4960114;28;20175;-54
2021/12/11 01:21:00;;;;;;;28.08;15.70;;;2.20;99.90;;;;;;4965830;28;20039;-59
2021/12/11 01:23:46;;;;;;;32.67;16.58;;;2.20;99.90;;;;;;4970252;28;20030;-58
2021/12/11 01:26:15;;;;;;;28.50;16.35;;;2.20;99.90;;;;;;4970559;28;20035;-58
2021/12/11 01:28:41;;;;;;;35.70;16.42;;;2.20;99.90;;;;;;4963589;28;20050;-58
2021/12/11 01:31:09;;;;;;;33.15;18.63;;;2.30;99.90;;;;;;4966662;28;20052;-58
2021/12/11 01:33:35;;;;;;;29.02;16.33;;;2.20;99.90;;;;;;4965932;28;20093;-59
2021/12/11 01:36:03;;;;;;;29.52;16.25;;;2.20;99.90;;;;;;4982070;28;20030;-59
2021/12/11 01:38:31;;;;;;;27.52;16.00;;;2.20;99.90;;;;;;4967953;28;20126;-58
2021/12/11 01:41:04;;;;;;;39.47;18.30;;;2.30;99.90;;;;;;4967745;28;20039;-58
2021/12/11 01:43:33;;;;;;;29.13;16.80;;;2.30;99.90;;;;;;4967080;28;20018;-57
2021/12/11 01:46:00;;;;;;;34.22;18.20;;;2.30;99.90;;;;;;4968872;28;20038;-58
2021/12/11 01:48:33;;;;;;;28.13;16.83;;;2.30;99.90;;;;;;4967208;28;20038;-58
2021/12/11 01:51:10;;;;;;;33.67;17.63;;;2.30;99.90;;;;;;4966612;28;20556;-57
2021/12/11 01:53:40;;;;;;;33.15;16.98;;;2.30;99.90;;;;;;4968207;28;20042;-57
2021/12/11 01:56:11;;;;;;;38.38;19.75;;;2.30;99.90;;;;;;4968620;28;20038;-57
2021/12/11 01:58:42;;;;;;;35.30;19.77;;;2.30;99.90;;;;;;4964293;28;20038;-58
2021/12/11 02:01:23;;;;;;;32.70;18.20;;;2.30;99.90;;;;;;4966835;28;20030;-59
2021/12/11 02:03:52;;;;;;;35.58;18.80;;;2.30;99.90;;;;;;4968709;28;20027;-57
2021/12/11 02:06:18;;;;;;;38.75;19.92;;;2.30;99.90;;;;;;4961636;28;20039;-61
2021/12/11 02:08:43;;;;;;;38.15;20.00;;;2.30;99.90;;;;;;4970472;28;20035;-59
2021/12/11 02:11:17;;;;;;;49.28;26.33;;;2.30;99.90;;;;;;4967721;28;20042;-58
2021/12/11 02:13:49;;;;;;;58.70;25.70;;;2.30;99.90;;;;;;4967579;28;20039;-59
2021/12/11 02:16:26;;;;;;;59.88;26.35;;;2.30;99.90;;;;;;4966887;28;20054;-58
2021/12/11 02:18:59;;;;;;;59.17;28.58;;;2.30;99.90;;;;;;4971555;28;20418;-59
2021/12/11 02:21:34;;;;;;;57.10;29.15;;;2.30;99.90;;;;;;4979289;28;20030;-56
2021/12/11 02:24:05;;;;;;;59.53;29.02;;;2.30;99.90;;;;;;4971762;28;20529;-57
2021/12/11 02:26:33;;;;;;;63.83;30.05;;;2.40;99.90;;;;;;4971860;28;20426;-58
2021/12/11 02:29:14;;;;;;;62.70;30.13;;;2.40;99.90;;;;;;4974020;28;20054;-58
2021/12/11 02:31:55;;;;;;;59.13;30.70;;;2.30;99.90;;;;;;4968671;28;20058;-58
2021/12/11 02:34:35;;;;;;;68.30;32.17;;;2.30;99.90;;;;;;4971790;28;20050;-57
2021/12/11 02:37:15;;;;;;;63.58;31.10;;;2.30;99.90;;;;;;4970766;28;20118;-58
2021/12/11 02:40:09;;;;;;;64.55;29.08;;;2.30;99.90;;;;;;4971832;28;20404;-57
2021/12/11 02:42:42;;;;;;;61.72;28.98;;;2.30;99.90;;;;;;4870888;28;20037;-59
2021/12/11 02:45:19;;;;;;;67.70;30.48;;;2.30;99.90;;;;;;4972142;28;20062;-56
2021/12/11 02:48:05;;;;;;;65.57;32.22;;;2.30;99.90;;;;;;4971503;28;20105;-59
2021/12/11 02:50:36;;;;;;;62.17;30.52;;;2.30;99.90;;;;;;4971299;28;20038;-59
2021/12/11 02:53:05;;;;;;;65.10;33.80;;;2.30;99.90;;;;;;4972480;28;20105;-59
2021/12/11 02:55:39;;;;;;;69.15;31.55;;;2.30;99.90;;;;;;4970160;28;20058;-57
2021/12/11 02:58:15;;;;;;;62.47;30.00;;;2.30;99.90;;;;;;4953194;28;20400;-58
2021/12/11 03:01:01;;;;;;;65.50;29.50;;;2.30;99.90;;;;;;4971220;28;20039;-59
2021/12/11 03:03:33;;;;;;;64.20;30.27;;;2.30;99.90;;;;;;4951092;28;20479;-59
2021/12/11 03:06:06;;;;;;;73.53;31.92;;;2.20;99.90;;;;;;4971778;28;20384;-59
2021/12/11 03:08:32;;;;;;;76.37;34.13;;;2.20;99.90;;;;;;4970792;28;20400;-56
2021/12/11 03:11:07;;;;;;;72.85;31.08;;;2.10;99.90;;;;;;4970801;28;20023;-58
2021/12/11 03:13:34;;;;;;;73.13;34.00;;;2.20;99.90;;;;;;4970652;28;20161;-59
2021/12/11 03:16:01;;;;;;;77.45;33.03;;;2.10;99.90;;;;;;4970967;28;20408;-57
2021/12/11 03:18:27;;;;;;;75.47;33.85;;;2.10;99.90;;;;;;4966432;28;20031;-59
2021/12/11 03:20:53;;;;;;;80.30;32.78;;;2.10;99.90;;;;;;4962032;28;20027;-58
2021/12/11 03:23:20;;;;;;;85.43;36.28;;;2.00;99.90;;;;;;4960006;28;20034;-58
2021/12/11 03:25:46;;;;;;;84.57;35.92;;;2.00;99.90;;;;;;4963745;28;20106;-58
2021/12/11 03:28:14;;;;;;;84.82;33.10;;;2.00;99.90;;;;;;4966758;28;20467;-56
2021/12/11 03:30:45;;;;;;;81.53;35.25;;;1.90;99.90;;;;;;4965017;28;20027;-58
2021/12/11 03:33:15;;;;;;;85.70;32.90;;;1.90;99.90;;;;;;4965524;28;20042;-58
2021/12/11 03:35:41;;;;;;;89.68;36.28;;;1.90;99.90;;;;;;4965062;28;20030;-58
2021/12/11 03:38:08;;;;;;;98.85;36.25;;;1.90;99.90;;;;;;4964761;28;20476;-57
2021/12/11 03:40:34;;;;;;;89.85;35.63;;;1.90;99.90;;;;;;4968507;28;20404;-58
2021/12/11 03:43:02;;;;;;;89.35;36.40;;;1.90;99.90;;;;;;4963651;28;20027;-57
2021/12/11 03:45:33;;;;;;;87.40;39.33;;;1.90;99.90;;;;;;4966733;28;20027;-56
2021/12/11 03:48:07;;;;;;;104.20;37.85;;;1.90;99.90;;;;;;4965426;28;20026;-59
2021/12/11 03:50:34;;;;;;;103.75;38.13;;;1.90;99.90;;;;;;4962548;28;20042;-58
2021/12/11 03:53:00;;;;;;;95.15;39.78;;;1.90;99.90;;;;;;4967155;28;20649;-58
2021/12/11 03:55:33;;;;;;;106.05;41.75;;;1.80;99.90;;;;;;4971089;28;20045;-58
2021/12/11 03:58:00;;;;;;;103.23;37.87;;;1.90;99.90;;;;;;4969222;28;20035;-55
2021/12/11 04:00:43;;;;;;;114.55;41.50;;;1.90;99.90;;;;;;4970688;28;20054;-55
2021/12/11 04:03:11;;;;;;;105.50;39.85;;;1.90;99.90;;;;;;4971080;28;20161;-56
2021/12/11 04:05:41;;;;;;;101.18;36.35;;;1.80;99.90;;;;;;4971582;28;20025;-57
2021/12/11 04:08:17;;;;;;;102.72;39.25;;;1.80;99.90;;;;;;4970426;28;20030;-57
2021/12/11 04:10:43;;;;;;;104.82;39.10;;;1.80;99.90;;;;;;4971231;28;20086;-58
2021/12/11 04:13:10;;;;;;;117.55;38.92;;;1.80;99.90;;;;;;4969323;28;20035;-55
2021/12/11 04:15:38;;;;;;;108.03;41.25;;;1.90;99.90;;;;;;4967507;28;20038;-58
2021/12/11 04:18:05;;;;;;;112.15;42.05;;;1.90;99.90;;;;;;4969920;28;20041;-58
2021/12/11 04:20:31;;;;;;;106.75;39.92;;;1.90;99.90;;;;;;4971171;28;20078;-58
2021/12/11 04:22:57;;;;;;;122.57;41.88;;;1.90;99.90;;;;;;4965666;28;20303;-58
2021/12/11 04:25:25;;;;;;;105.47;39.72;;;1.90;99.90;;;;;;4967796;28;20481;-58
2021/12/11 04:27:51;;;;;;;117.70;40.88;;;2.00;99.90;;;;;;4950735;28;20022;-55
2021/12/11 04:30:20;;;;;;;105.97;39.85;;;1.90;99.90;;;;;;4963776;28;20599;-58
2021/12/11 04:32:46;;;;;;;104.72;38.45;;;2.00;99.90;;;;;;4969892;28;20034;-55
2021/12/11 04:35:13;;;;;;;106.55;39.88;;;2.00;99.90;;;;;;4968220;28;20030;-59
2021/12/11 04:37:40;;;;;;;109.32;40.03;;;2.00;99.90;;;;;;4973869;28;20042;-59
2021/12/11 04:40:16;;;;;;;101.65;39.40;;;2.00;99.90;;;;;;4968369;28;20033;-57
2021/12/11 04:45:27;;;;;;;108.25;41.60;;;2.10;99.90;;;;;;4984765;23;20066;-58
2021/12/11 04:48:09;;;;;;;96.68;39.17;;;2.00;99.90;;;;;;4966266;28;20061;-54
2021/12/11 04:50:45;;;;;;;96.57;39.00;;;2.00;99.90;;;;;;4968844;28;20041;-58
2021/12/11 04:53:35;;;;;;;100.47;38.67;;;2.10;99.90;;;;;;4968809;28;20062;-58
2021/12/11 04:59:44;;;;;;;92.07;38.28;;;2.10;99.90;;;;;;4967240;28;20037;-58
2021/12/11 05:01:54;;;;;;;97.38;38.85;;;2.10;99.90;;;;;;4959710;28;20043;-54
2021/12/11 05:07:18;;;;;;;95.38;37.67;;;2.10;99.90;;;;;;4970035;28;20034;-56
2021/12/11 05:09:55;;;;;;;82.63;36.95;;;2.20;99.90;;;;;;4969584;28;20084;-57
2021/12/11 05:14:49;;;;;;;93.60;38.42;;;2.20;99.90;;;;;;4961199;28;20812;-56
2021/12/11 05:17:16;;;;;;;86.18;38.40;;;2.20;99.90;;;;;;4968826;28;20038;-56
2021/12/11 05:19:42;;;;;;;78.75;35.75;;;2.20;99.90;;;;;;4964635;28;21968;-56
2021/12/11 05:22:09;;;;;;;91.47;35.92;;;2.20;99.90;;;;;;4963436;28;20083;-57
2021/12/11 05:24:38;;;;;;;86.13;37.63;;;2.20;99.90;;;;;;4966989;28;20105;-54
2021/12/11 05:27:04;;;;;;;90.85;35.85;;;2.20;99.90;;;;;;4962871;28;20062;-58
2021/12/11 05:29:31;;;;;;;80.72;35.83;;;2.20;99.90;;;;;;4966766;28;20030;-57
2021/12/11 05:31:58;;;;;;;75.78;37.38;;;2.20;99.90;;;;;;4969356;28;20058;-58
2021/12/11 05:34:23;;;;;;;89.60;38.25;;;2.30;99.90;;;;;;4964175;28;20038;-58
2021/12/11 05:36:49;;;;;;;83.60;38.03;;;2.30;99.90;;;;;;4964094;28;20035;-57
2021/12/11 05:39:18;;;;;;;81.45;35.55;;;2.30;99.90;;;;;;4968806;28;20030;-58
2021/12/11 05:41:45;;;;;;;83.28;35.95;;;2.30;99.90;;;;;;4962499;28;20110;-58
2021/12/11 05:44:12;;;;;;;84.05;35.40;;;2.30;99.90;;;;;;4964262;28;20023;-57
2021/12/11 05:46:39;;;;;;;76.45;35.50;;;2.30;99.90;;;;;;4967104;28;20452;-56
2021/12/11 05:49:08;;;;;;;69.25;35.13;;;2.30;99.90;;;;;;4968182;28;20027;-57
2021/12/11 05:51:39;;;;;;;72.07;33.80;;;2.30;99.90;;;;;;4968082;28;20027;-57
2021/12/11 05:54:15;;;;;;;75.88;34.42;;;2.30;99.90;;;;;;4965835;28;20031;-57
2021/12/11 05:56:42;;;;;;;78.55;35.80;;;2.30;99.90;;;;;;4968327;28;20089;-55
2021/12/11 05:59:10;;;;;;;75.57;34.53;;;2.30;99.90;;;;;;4967579;28;20089;-58
2021/12/11 06:01:41;;;;;;;81.38;36.63;;;2.30;99.90;;;;;;4966060;28;20081;-57
2021/12/11 06:04:15;;;;;;;70.68;33.22;;;2.30;99.90;;;;;;4968051;28;20038;-55
2021/12/11 06:06:41;;;;;;;73.80;34.10;;;2.40;99.90;;;;;;4969461;28;20161;-55
2021/12/11 06:09:14;;;;;;;72.05;35.08;;;2.30;99.90;;;;;;4969535;28;20566;-52
2021/12/11 06:11:42;;;;;;;70.10;34.33;;;2.40;99.90;;;;;;4970327;28;20500;-57
2021/12/11 06:14:08;;;;;;;72.28;34.47;;;2.40;99.90;;;;;;4965477;28;20030;-57
2021/12/11 06:16:34;;;;;;;77.10;35.30;;;2.30;99.90;;;;;;4966507;28;20031;-56
2021/12/11 06:19:03;;;;;;;76.28;34.65;;;2.40;99.90;;;;;;4966623;28;20548;-57
2021/12/11 06:21:31;;;;;;;74.05;35.25;;;2.40;99.90;;;;;;4961990;28;20034;-58
2021/12/11 06:23:57;;;;;;;66.57;31.42;;;2.40;99.90;;;;;;4964294;28;20035;-56
2021/12/11 06:26:23;;;;;;;71.72;33.47;;;2.40;99.90;;;;;;4968720;28;20103;-57
2021/12/11 06:28:48;;;;;;;74.22;35.17;;;2.40;99.90;;;;;;4967111;28;20039;-58
2021/12/11 06:31:18;;;;;;;75.30;35.30;;;2.40;99.90;;;;;;4964591;28;20042;-56
2021/12/11 06:33:46;;;;;;;75.30;34.47;;;2.40;99.90;;;;;;4969140;28;20019;-57
2021/12/11 06:36:14;;;;;;;73.18;31.63;;;2.40;99.90;;;;;;4969382;28;20574;-57
2021/12/11 06:38:42;;;;;;;75.38;34.78;;;2.50;99.90;;;;;;4968687;28;20508;-58
2021/12/11 06:41:09;;;;;;;72.50;33.35;;;2.50;99.90;;;;;;4967364;28;20031;-58
2021/12/11 06:43:35;;;;;;;70.63;34.25;;;2.50;99.90;;;;;;4949939;28;20497;-56
2021/12/11 06:46:01;;;;;;;72.00;33.35;;;2.50;99.90;;;;;;4966077;28;20055;-56
2021/12/11 06:48:27;;;;;;;72.50;33.83;;;2.50;99.90;;;;;;4968339;28;20042;-58
2021/12/11 06:50:55;;;;;;;72.43;32.58;;;2.50;99.90;;;;;;4969598;28;20053;-59
2021/12/11 06:53:29;;;;;;;74.53;34.58;;;2.50;99.90;;;;;;4962654;28;20535;-57
2021/12/11 06:55:55;;;;;;;77.50;34.63;;;2.50;99.90;;;;;;4966669;28;20041;-57
2021/12/11 06:58:20;;;;;;;80.57;34.75;;;2.50;99.90;;;;;;4968083;28;20027;-59
2021/12/11 07:00:46;;;;;;;80.28;33.92;;;2.50;99.90;;;;;;4966171;28;20062;-57
2021/12/11 07:03:12;;;;;;;69.07;32.85;;;2.50;99.90;;;;;;4966162;28;20039;-59
2021/12/11 07:05:37;;;;;;;68.63;33.10;;;2.50;99.90;;;;;;4965604;28;20135;-59
2021/12/11 07:08:08;;;;;;;77.47;35.20;;;2.50;99.90;;;;;;4970322;28;20040;-59
2021/12/11 07:10:34;;;;;;;82.10;34.70;;;2.50;99.90;;;;;;4953305;28;20108;-59
2021/12/11 07:13:00;;;;;;;77.93;33.08;;;2.50;99.90;;;;;;4970929;28;20113;-59
2021/12/11 07:15:26;;;;;;;76.75;33.92;;;2.50;99.90;;;;;;4969667;28;20042;-56
2021/12/11 07:17:52;;;;;;;76.93;33.58;;;2.60;99.90;;;;;;4967831;28;20057;-53
2021/12/11 07:20:18;;;;;;;67.70;30.77;;;2.60;99.90;;;;;;4970060;28;20031;-59
2021/12/11 07:22:44;;;;;;;74.70;33.20;;;2.60;99.90;;;;;;4968206;28;20108;-58
2021/12/11 07:25:17;;;;;;;78.80;34.47;;;2.60;99.90;;;;;;4970360;28;20039;-58
2021/12/11 07:27:44;;;;;;;78.20;34.00;;;2.60;99.90;;;;;;4969859;28;20113;-57
2021/12/11 07:30:10;;;;;;;75.75;35.00;;;2.60;99.90;;;;;;4969105;28;20763;-58
2021/12/11 07:32:37;;;;;;;77.95;33.17;;;2.60;99.90;;;;;;4967512;28;20030;-60
2021/12/11 07:35:03;;;;;;;83.45;34.25;;;2.60;99.90;;;;;;4970089;28;20031;-59
2021/12/11 07:37:29;;;;;;;71.95;33.58;;;2.60;99.90;;;;;;4969902;28;20031;-59
2021/12/11 07:39:55;;;;;;;91.03;43.97;;;2.60;99.90;;;;;;4970305;28;20053;-54
2021/12/11 07:42:20;;;;;;;84.15;40.50;;;2.60;99.90;;;;;;4969811;28;20030;-55
2021/12/11 07:44:46;;;;;;;80.60;38.65;;;2.60;99.90;;;;;;4968244;28;20086;-59
2021/12/11 07:47:11;;;;;;;75.93;36.95;;;2.70;99.90;;;;;;4968391;28;20408;-58
2021/12/11 07:49:37;;;;;;;83.47;37.75;;;2.70;99.90;;;;;;4966319;28;20034;-58
2021/12/11 07:52:04;;;;;;;94.53;44.08;;;2.70;99.90;;;;;;4969651;28;20512;-58
2021/12/11 07:54:29;;;;;;;91.90;43.17;;;2.70;99.90;;;;;;4969972;28;20500;-58
2021/12/11 07:56:55;;;;;;;78.03;35.40;;;2.70;99.90;;;;;;4969228;28;20033;-56
2021/12/11 07:59:21;;;;;;;77.18;36.90;;;2.70;99.90;;;;;;4969082;28;20078;-59
2021/12/11 08:01:49;;;;;;;80.28;34.70;;;2.70;99.90;;;;;;4965611;28;20401;-53
2021/12/11 08:04:15;;;;;;;55.53;26.50;;;2.70;99.90;;;;;;4967873;28;20052;-58
2021/12/11 08:06:42;;;;;;;68.43;34.10;;;2.70;99.90;;;;;;4970534;28;20630;-58
2021/12/11 08:09:12;;;;;;;68.72;31.42;;;2.80;99.90;;;;;;4970231;28;20031;-59
2021/12/11 08:11:39;;;;;;;95.78;43.28;;;2.80;99.90;;;;;;4968289;28;20110;-59
2021/12/11 08:14:09;;;;;;;80.60;36.33;;;2.80;99.90;;;;;;4968377;28;21581;-60
2021/12/11 08:16:45;;;;;;;72.53;37.03;;;2.80;99.90;;;;;;4969496;28;20027;-60
2021/12/11 08:19:12;;;;;;;87.88;40.80;;;2.80;99.90;;;;;;4967991;28;20319;-59
2021/12/11 08:21:38;;;;;;;100.13;48.15;;;2.90;99.90;;;;;;4969323;28;20041;-58
2021/12/11 08:24:06;;;;;;;70.57;32.97;;;2.90;99.90;;;;;;4967474;28;20126;-59
2021/12/11 08:26:34;;;;;;;62.53;33.40;;;2.90;99.90;;;;;;4970277;28;20027;-58
2021/12/11 08:29:01;;;;;;;72.15;34.22;;;3.00;99.90;;;;;;4966930;28;20086;-57
2021/12/11 08:31:27;;;;;;;70.00;32.25;;;3.00;99.90;;;;;;4967213;28;20404;-58
2021/12/11 08:33:54;;;;;;;72.00;34.55;;;3.10;99.90;;;;;;4967473;28;20031;-54
2021/12/11 08:36:21;;;;;;;70.45;33.53;;;3.10;99.90;;;;;;4969945;28;20396;-59
2021/12/11 08:38:47;;;;;;;64.05;30.42;;;3.10;99.90;;;;;;4969256;28;20396;-59
2021/12/11 08:41:19;;;;;;;66.65;31.63;;;3.20;99.90;;;;;;4970458;28;20038;-59
2021/12/11 08:43:52;;;;;;;64.00;30.00;;;3.30;99.90;;;;;;4966449;28;20061;-58
2021/12/11 08:46:27;;;;;;;76.80;33.97;;;3.30;99.90;;;;;;4968470;28;20547;-58
2021/12/11 08:48:55;;;;;;;65.50;31.35;;;3.40;99.90;;;;;;4968815;28;20050;-55
2021/12/11 08:51:30;;;;;;;59.47;30.17;;;3.40;99.90;;;;;;4969672;28;20042;-59
2021/12/11 08:53:56;;;;;;;70.10;31.58;;;3.40;99.90;;;;;;4965188;28;20035;-58
2021/12/11 08:56:24;;;;;;;69.35;32.95;;;3.40;99.90;;;;;;4969402;28;20109;-58
2021/12/11 08:58:51;;;;;;;67.25;32.83;;;3.50;99.90;;;;;;4970603;28;20054;-59
2021/12/11 09:01:27;;;;;;;66.50;31.90;;;3.50;99.90;;;;;;4968929;28;20035;-60
2021/12/11 09:04:08;;;;;;;62.60;31.60;;;3.50;99.90;;;;;;4967630;28;20122;-54
2021/12/11 09:06:38;;;;;;;72.18;33.50;;;3.70;99.90;;;;;;4952868;28;20548;-59
2021/12/11 09:09:24;;;;;;;60.83;31.00;;;3.70;99.90;;;;;;4969461;28;20035;-59
2021/12/11 09:12:08;;;;;;;65.95;33.00;;;3.80;99.90;;;;;;4966994;28;20034;-59
2021/12/11 09:14:49;;;;;;;74.15;34.05;;;3.80;99.90;;;;;;4966416;28;20066;-57
2021/12/11 09:17:21;;;;;;;67.63;33.33;;;3.80;99.90;;;;;;4970724;28;20026;-60
2021/12/11 09:20:03;;;;;;;113.15;55.58;;;3.80;99.90;;;;;;4970169;28;20038;-55
2021/12/11 09:22:39;;;;;;;68.72;34.60;;;3.70;99.90;;;;;;4968268;28;20034;-58
2021/12/11 09:25:11;;;;;;;79.60;35.83;;;3.60;99.90;;;;;;4969553;28;20022;-58
2021/12/11 09:27:43;;;;;;;66.82;31.83;;;3.60;99.90;;;;;;4968748;28;20512;-58
2021/12/11 09:30:54;;;;;;;73.22;31.95;;;3.60;99.90;;;;;;4969388;28;20042;-58
2021/12/11 09:33:24;;;;;;;65.13;31.63;;;3.70;99.90;;;;;;4969607;28;20045;-56
2021/12/11 09:36:07;;;;;;;68.97;34.50;;;3.80;99.90;;;;;;4968297;28;20026;-57
2021/12/11 09:38:40;;;;;;;70.00;32.72;;;3.90;99.90;;;;;;4971338;28;20031;-57
2021/12/11 09:41:19;;;;;;;68.00;33.50;;;3.90;99.90;;;;;;4970825;28;20046;-57
2021/12/11 09:44:22;;;;;;;65.80;32.75;;;3.80;99.90;;;;;;4970527;28;20046;-58
2021/12/11 09:47:10;;;;;;;68.53;33.00;;;3.80;99.90;;;;;;4952623;28;20118;-58
2021/12/11 09:49:43;;;;;;;76.05;35.20;;;3.80;99.90;;;;;;4968990;28;20062;-58
2021/12/11 09:52:23;;;;;;;71.85;35.75;;;3.80;99.90;;;;;;4968254;28;20069;-56
2021/12/11 09:55:12;;;;;;;81.65;34.92;;;3.70;99.90;;;;;;4967288;28;20392;-58
2021/12/11 09:57:42;;;;;;;91.55;39.75;;;3.70;99.90;;;;;;4968714;28;20046;-58
2021/12/11 10:00:16;;;;;;;69.03;33.88;;;3.60;99.90;;;;;;4966003;28;20408;-57
2021/12/11 10:02:43;;;;;;;74.35;35.22;;;3.60;99.90;;;;;;4966313;28;20031;-52
2021/12/11 10:05:30;;;;;;;84.72;39.92;;;3.60;99.90;;;;;;4968623;28;20093;-54
2021/12/11 10:08:13;;;;;;;77.97;34.90;;;3.60;99.90;;;;;;4964175;28;20539;-53
2021/12/11 10:10:39;;;;;;;72.65;32.42;;;3.60;99.90;;;;;;4963088;28;20053;-58
2021/12/11 10:13:05;;;;;;;79.57;35.90;;;3.60;99.90;;;;;;4966856;28;20489;-58
2021/12/11 10:15:34;;;;;;;74.45;35.92;;;3.60;99.90;;;;;;4968326;28;20043;-57
2021/12/11 10:18:14;;;;;;;71.90;34.15;;;3.60;99.90;;;;;;4967563;28;20038;-57
2021/12/11 10:20:54;;;;;;;76.68;35.42;;;3.60;99.90;;;;;;4951748;28;20441;-56
2021/12/11 10:23:26;;;;;;;77.00;33.13;;;3.60;99.90;;;;;;4965921;28;20019;-57
2021/12/11 10:25:54;;;;;;;70.18;30.40;;;3.60;99.90;;;;;;4966578;28;20030;-58
2021/12/11 10:28:23;;;;;;;69.20;31.95;;;3.70;99.90;;;;;;4966041;28;20043;-59
2021/12/11 10:30:57;;;;;;;70.82;32.55;;;3.70;99.90;;;;;;4968367;28;20519;-56
2021/12/11 10:33:25;;;;;;;;;;;3.80;99.90;;;;;;4968348;28;20574;-58
2021/12/11 10:35:53;;;;;;;62.97;29.35;;;3.80;99.90;;;;;;4967951;28;19921;-57
2021/12/11 10:38:20;;;;;;;68.47;30.90;;;3.90;99.90;;;;;;4961465;28;20525;-54
2021/12/11 10:40:51;;;;;;;68.30;32.53;;;3.90;99.90;;;;;;4964361;28;20033;-57
2021/12/11 10:43:21;;;;;;;67.30;30.98;;;3.90;99.90;;;;;;4970294;28;20041;-58
2021/12/11 10:45:49;;;;;;;66.47;30.95;;;3.90;99.90;;;;;;4972211;28;20019;-57
2021/12/11 10:48:19;;;;;;;77.68;33.78;;;3.80;99.90;;;;;;4971803;28;20085;-58
2021/12/11 10:51:10;;;;;;;70.85;32.22;;;3.80;99.90;;;;;;4971816;28;20034;-57
2021/12/11 10:53:42;;;;;;;74.00;32.30;;;3.80;99.90;;;;;;4972080;28;20120;-55
2021/12/11 10:56:09;;;;;;;61.45;29.77;;;3.70;99.90;;;;;;4971593;28;20504;-56
2021/12/11 10:58:48;;;;;;;63.78;29.70;;;3.70;99.90;;;;;;4971223;28;20065;-54
2021/12/11 11:01:34;;;;;;;76.22;32.95;;;3.70;99.90;;;;;;4970655;28;20035;-56
2021/12/11 11:04:05;;;;;;;72.25;32.08;;;3.70;99.90;;;;;;4970851;28;20019;-57
2021/12/11 11:06:30;;;;;;;75.97;32.58;;;3.70;99.90;;;;;;4972041;28;20439;-57
2021/12/11 11:08:56;;;;;;;74.43;32.13;;;3.70;99.90;;;;;;4968049;28;20034;-59
2021/12/11 11:11:25;;;;;;;76.68;35.03;;;3.70;99.90;;;;;;4969727;28;20042;-58
2021/12/11 11:13:51;;;;;;;77.80;35.17;;;3.70;99.90;;;;;;4969513;28;20041;-56
2021/12/11 11:16:18;;;;;;;83.05;32.70;;;3.60;99.90;;;;;;4970762;28;20027;-57
2021/12/11 11:18:45;;;;;;;60.33;30.00;;;3.60;99.90;;;;;;4971217;28;20030;-57
2021/12/11 11:21:25;;;;;;;71.22;29.65;;;3.70;99.90;;;;;;4970982;28;20105;-58
2021/12/11 11:23:52;;;;;;;67.20;29.67;;;3.80;99.90;;;;;;4970685;28;20035;-58
2021/12/11 11:26:25;;;;;;;99.85;40.85;;;3.80;99.90;;;;;;4970534;28;20110;-58
2021/12/11 11:28:53;;;;;;;72.45;33.95;;;3.70;99.90;;;;;;4970095;28;20054;-58
2021/12/11 11:31:23;;;;;;;73.97;32.90;;;3.60;99.90;;;;;;4969477;28;20047;-58
2021/12/11 11:33:49;;;;;;;78.72;33.28;;;3.70;99.90;;;;;;4970029;28;20034;-58
2021/12/11 11:36:19;;;;;;;67.53;30.88;;;3.70;99.90;;;;;;4971042;28;20023;-58
2021/12/11 11:38:51;;;;;;;62.50;28.35;;;3.80;99.90;;;;;;4968169;28;20436;-57
2021/12/11 11:41:25;;;;;;;68.88;30.25;;;3.80;99.90;;;;;;4969915;28;20034;-56
2021/12/11 11:43:52;;;;;;;59.13;29.30;;;3.80;99.90;;;;;;4973452;28;20664;-58
2021/12/11 11:46:19;;;;;;;59.15;29.05;;;3.90;99.90;;;;;;4977582;28;20026;-58
2021/12/11 11:48:49;;;;;;;57.75;27.38;;;3.90;99.90;;;;;;4973476;28;20070;-58
2021/12/11 11:51:41;;;;;;;60.42;28.38;;;3.90;99.90;;;;;;4972388;28;20108;-58
2021/12/11 11:54:08;;;;;;;63.50;29.20;;;3.90;99.90;;;;;;4966688;28;20045;-59
2021/12/11 11:56:39;;;;;;;61.88;27.65;;;3.90;99.90;;;;;;4970800;28;20034;-54
2021/12/11 11:59:06;;;;;;;57.67;28.23;;;3.90;99.90;;;;;;4970343;28;20066;-55
2021/12/11 12:01:40;;;;;;;59.97;29.05;;;3.90;99.90;;;;;;4970713;28;20027;-59
2021/12/11 12:04:15;;;;;;;61.67;26.48;;;3.90;99.90;;;;;;4971231;28;20023;-59
2021/12/11 12:06:42;;;;;;;;;;;3.80;99.90;;;;;;4972317;28;20515;-60
2021/12/11 12:09:10;;;;;;;78.50;36.72;;;3.80;99.90;;;;;;4973235;28;19918;-56
2021/12/11 12:11:39;;;;;;;71.47;33.10;;;3.80;99.90;;;;;;4975269;28;20043;-60
2021/12/11 12:14:08;;;;;;;62.63;29.98;;;3.70;99.90;;;;;;4972867;28;20035;-60
2021/12/11 12:16:35;;;;;;;79.72;37.10;;;3.80;99.90;;;;;;4967212;28;20086;-59
2021/12/11 12:19:01;;;;;;;76.07;34.70;;;3.70;99.90;;;;;;4962552;28;20110;-58
2021/12/11 12:21:29;;;;;;;79.35;35.53;;;3.80;99.90;;;;;;4960826;28;20501;-60
2021/12/11 12:23:55;;;;;;;92.22;37.45;;;3.80;99.90;;;;;;4957732;28;20035;-52
2021/12/11 12:26:26;;;;;;;220.25;92.45;;;3.80;99.90;;;;;;4973494;28;20038;-57
2021/12/11 12:28:54;;;;;;;89.90;38.72;;;3.80;99.90;;;;;;4970075;28;20031;-58
2021/12/11 12:31:27;;;;;;;80.70;36.42;;;3.80;99.90;;;;;;4970539;28;20077;-56
2021/12/11 12:33:53;;;;;;;60.67;28.10;;;3.90;99.90;;;;;;4963292;28;20031;-56
2021/12/11 12:36:19;;;;;;;59.67;26.40;;;3.90;99.90;;;;;;4953660;28;20146;-57
2021/12/11 12:38:48;;;;;;;54.50;25.80;;;3.90;99.90;;;;;;4966175;28;20063;-56
2021/12/11 12:41:24;;;;;;;55.72;25.52;;;3.90;99.90;;;;;;4973440;28;20031;-59
2021/12/11 12:46:38;;;;;;;52.50;25.75;;;4.00;99.90;;;;;;4965753;28;20567;-57
2021/12/11 12:49:04;;;;;;;58.15;28.08;;;4.00;99.90;;;;;;4967967;28;20405;-58
2021/12/11 12:51:30;;;;;;;69.43;30.17;;;4.00;99.90;;;;;;4973014;28;20033;-58
2021/12/11 12:53:59;;;;;;;67.72;30.48;;;4.00;99.90;;;;;;4971839;28;20042;-57
2021/12/11 12:56:34;;;;;;;72.50;32.08;;;4.00;99.90;;;;;;4971245;28;20372;-58
2021/12/11 12:59:09;;;;;;;62.53;29.45;;;3.90;99.90;;;;;;4976690;28;20031;-54
2021/12/11 13:01:45;;;;;;;73.80;37.15;;;3.90;99.90;;;;;;4975586;28;20026;-54
2021/12/11 13:04:15;;;;;;;78.95;35.70;;;3.90;99.90;;;;;;4972780;28;20594;-56
2021/12/11 13:06:46;;;;;;;72.43;30.90;;;3.90;99.90;;;;;;4970444;28;20038;-56
2021/12/11 13:09:33;;;;;;;73.78;34.33;;;3.90;99.90;;;;;;4971123;28;20170;-58
2021/12/11 13:12:01;;;;;;;63.13;31.20;;;3.90;99.90;;;;;;4970519;28;20030;-58